LiveATC.Net - Listen to live air traffic control over the Internet! Contact LiveATC.net for advertising information

Find LiveATC Audio Streams


Airport/ARTCC Code

Frequency
(e.g., 124.400, 128.75)
Site-wide search

Browse LiveATC Feeds
LiveATC Coverage Map
Top 50 LiveATC Feeds
Bad Weather Areas

LiveATC FAQ
Offer a LiveATC Feed
Contact LiveATC.net
Press Inquiries

LiveATC on iPhone
LiveATC on Android

LiveATC Mobile
(Mobile browser)

ATC Audio Archives
Interesting Recordings

LiveATC Forums

Home Page
About LiveATC.net
Make a Donation
LiveATC Bookstore

Terms of Use
Privacy Policy

ATC/Radar Sites
U.S. ARTCC Freqs
Canadian Air Freqs

AIRMETs/SIGMETs

FAA Airport Status
Nat'l Airspace Status
Arrival Demand Charts


Server Software By:
Icecast.org
Liquidsoap


Current Potentially Bad Weather Airports
(updated every 30 minutes - sorted alphabetically by ICAO code)



This page lists LiveATC.net airport areas that may be interesting to listen to because of challenging flying (weather) conditions. Challenging weather conditions include low ceilings, limited visibility, high or gusty winds, or thunderstorms. This is an evolving new feature and comments are welcome.

Updated: Thu Dec 18 02:40:01 UTC 2014
Click on airport name to go to that airport area's feeds.

CYHU Tower #1
cyhuCYHU 180222Z AUTO 31004KT 1 1/2SM -RASN OVC002 00/M01 A2977 RMK SLP083
CYKF Tower
cykfCYKF 180228Z AUTO 27018KT 6SM -SN SCT013 BKN018 OVC046 M02/M04 A2997 RMK SLP161
CYMX Ground/Radio
cymxCYMX 180200Z 07002KT 1SM BR VV002 M00/M01 A2978 RMK FG8 VIS VRB 3/4-11/4 SLP090
CYOO Twr/Gnd #2
cyooCYOO 180228Z AUTO 26008KT 9SM -SNRA UP BKN007 BKN010 BKN014 OVC020 00/M00 A2993 RMK SLP140
CYOW Del/Gnd/Twr/App
cyowCYOW 180200Z 25007KT 2SM -SN BR OVC002 00/M00 A2978 RMK SF8 SLP090
CYPQ UNICOM/Guard
cypqCYPQ 180221Z AUTO 28009G17KT 9SM -SN BKN016 OVC044 01/M00 A2988 RMK SLP126
CYQB Gnd/Twr/App
cyqbCYQB 180200Z 07010KT 6SM -SN BKN008 OVC022 M01/M02 A2978 RMK SF5SC3 SLP089
CYQG Ground/Tower
cyqgCYQG 180200Z 31013G20KT 15SM -SN OVC028 M02/M08 A3014 RMK SC8 SLP213
CYQM Gnd/Twr/Center/Misc
cyqmCYQM 180221Z 04011KT 12SM -FZRA OVC004 M00/M01 A2974 RMK SF8 SLP073
CYRQ/CSR3 CTAF/UNICOM
WX MAP UNAVAILABLECYRQ 180211Z AUTO 04008KT 2 1/4SM -SN BKN008 OVC013 M01/M01 A2976 RMK VIS VRB 1 3/4-3 SLP082
CYSB Gnd/Twr/Center
WX MAP UNAVAILABLECYSB 180200Z 36012G19KT 3SM -SN OVC014 M08/M09 A2994 RMK SC8 SLP161
CYTS CTAF/FSS/Area
WX MAP UNAVAILABLECYTS 180200Z 34011G17KT 6SM -SN DRSN BKN012 OVC020 M11/M13 A3008 RMK SF6SC2 SLP210
CYTZ Tower
cytzCYTZ 180225Z AUTO 25015G20KT 6SM -SN FEW009 SCT020 SCT027 OVC032 01/M01 A2997 RMK SLP153
CYUL Approach/Departure
cyulCYUL 180216Z 32002KT 2SM -SN BR OVC003 00/M00 A2977 RMK SF8 SLP084
CYVO Gnd/RDO/Center
WX MAP UNAVAILABLECYVO 180200Z 34009KT 1 1/2SM -SN OVC010 M04/M05 A2986 RMK SC8 /S01/ SLP134
CYXE Gnd/Twr/App/Center
WX MAP UNAVAILABLECYXE 180221Z 16015KT 15SM OVC009 M08/M10 A3001 RMK SC8 SLP200
CYYZ Arrival
cyyzCYYZ 180200Z 26014G19KT 5SM -SN BKN016 OVC030 M00/M02 A2996 RMK SC6SC2 SLP151
EICK Ground/Tower/Approach
WX MAP UNAVAILABLEEICK 180200Z 24019G31KT 9000 -RADZ OVC006 11/11 Q1008 TEMPO 3000
EIKN Gnd/Twr/App
WX MAP UNAVAILABLEEIKN 171900Z 24012KT 2000 -RADZ BKN002 OVC006 10/10 Q1003 TEMPO 0600
ENCN Tower/Approach
WX MAP UNAVAILABLEENCN 180220Z AUTO 06004KT 0800NDV R04/P2000N R22/P2000N FZFG FEW062/// M01/M02 Q0996
ESMS Twr/Sweden Control
WX MAP UNAVAILABLEESMS 180220Z 23006KT 4600 BR OVC003 04/03 Q1001
ESOW Twr/CTAF/Control
WX MAP UNAVAILABLEESOW 180220Z AUTO 15003KT 7000 BR OVC001/// M03/M04 Q0998
KAAO CTAF
kaaoKAAO 180223Z AUTO 07007KT 3SM -SN BR BKN004 BKN023 OVC028 M02/M02 A3017 RMK AO2 P0000 T10171022
KABI/KDYS Gnd/Twr/App/ZFW
kabiKABI 180224Z 15009KT 10SM OVC009 09/07 A3007 RMK AO2 T00940067
KADS Twr/App
kadsKADS 180147Z 04005KT 3SM BR OVC006 05/04 A3016
KAFW Tower/Heli/App
kafwKAFW 180218Z 08007KT 2 1/2SM BR OVC006 05/04 A3015 RMK AO2 TWR VIS 4 RAE16 CIG 002V009 P0001 T00500044
KAMA Gnd/Twr/App
kamaKAMA 180211Z 16016KT 1/2SM R04/2200V6000FT FG VV002 02/02 A2999 RMK AO2 T00170017
KASE Del/Gnd/Twr/ZDC
kaseKASE 180153Z 00000KT 5SM -SN BR BKN021 OVC025 M02/M03 A2996 RMK AO2 SLP147 P0000 T10171028
KAUS Del/Gnd/Twr/App #1
kausKAUS 180153Z 35006KT 10SM OVC009 11/11 A3008 RMK AO2 SLP187 T01110106
KBUF Tower/App
kbufKBUF 180213Z 26014G20KT 3SM -SN BR SCT011 OVC036 M01/M03 A2998 RMK AO2 P0000 T10061028
KBVI Ground/Tower
kbviKBVI 180147Z 29011G15KT 10SM -SN OVC020 M01/M05 A3010 RMK LAST
KCAK Del/Gnd/Twr/App
kcakKCAK 180151Z 27010G17KT 6SM -SN OVC015 M02/M06 A3013 RMK AO2 SLP215 PCPN VRY LGT P0000 T10221061
KCLE App/Dep
kcleKCLE 180151Z 26013KT 9SM -SN OVC024 M02/M06 A3017 RMK AO2 SLP224 P0000 T10171061
KDAL Tower
kdalKDAL 180153Z 06006KT 2 1/2SM -RA BR OVC006 06/05 A3016 RMK AO2 SLP214 P0003 T00610050
KDFW Tower/App
kdfwKDFW 180153Z 06007KT 2SM -RA BR OVC006 06/05 A3015 RMK AO2 TWR VIS 3 CIG 004V009 SLP208 P0003 T00560050
KDTO Gnd/Twr
kdtoKDTO 180153Z 07006KT 3SM -RA BR OVC006 04/04 A3016 RMK AO2 SLP214 P0001 T00440039
KDTW Twr/App
kdtwKDTW 180153Z 27013G20KT 9SM -SN OVC027 M02/M07 A3015 RMK AO2 SLP218 P0000 T10171072 $
KFTW Clearance/Gnd/Twr
kftwKFTW 180222Z 07007KT 3SM -RA BR OVC004 07/05 A3014 RMK AO2 CIG 003V008 P0000 T00670050
KGOK CTAF/FSS
kgokKGOK 180153Z AUTO 11006KT 2 1/2SM BR OVC005 02/02 A3015 RMK AO2 SLP218 T00220017
KGRR Gnd/Twr/App
kgrrKGRR 180153Z 30007KT 9SM -SN OVC025 M02/M07 A3017 RMK AO2 SLP226 P0000 T10221072
KHIO Ground/Tower
WX MAP UNAVAILABLEKHIO 180153Z 09003KT 2SM BR OVC008 07/07 A2989 RMK AO2 RAE46 CIG 004V010 SLP125 P0002 T00720067
KHUL/KPQI/ZBW01/15
khulKHUL 180153Z AUTO 04009KT 1/2SM SN FZFG VV007 M01/M02 A2972 RMK AO2 SLP069 P0009 T10061017
KHUT Ground/Twr
khutKHUT 180219Z 09006KT 3SM -SN BR SCT006 OVC026 M01/M03 A3016 RMK AO2 P0000 T10061028
KLBB Gnd/Twr/App
klbbKLBB 180153Z 13011KT 6SM BR OVC004 08/07 A2999 RMK AO2 SLP147 BKN006 V SCT T00780067
KPDT Tower
kpdtKPDT 180206Z 30004KT 3SM BR FEW003 OVC007 02/01 A2994 RMK AO2 T00170011
KPWA Gnd/Twr/App
kpwaKPWA 180153Z 12006KT 3SM BR OVC006 03/02 A3014 RMK AO2 SFC VIS 4 SLP211 T00330022
KRBD Gnd/Twr
krbdKRBD 180153Z 06005KT 5SM BR OVC005 07/05 A3014 RMK AO2 RAB17E46 SLP208 P0000 T00720050
KROC Tower/Approach
krocKROC 180154Z 27015KT 3SM -SN BR OVC018 01/M02 A2994 RMK AO2 PK WND 26028/0136 SLP148 P0002 T00061017
KRST Gnd/Twr/App
krstKRST 180225Z 01003KT 2 1/2SM -SN OVC014 M08/M12 A3028 RMK AO2 TWR VIS 5 VIS 1 3/4V4 SNB16 P0000 T10831117
KSAF Gnd/Tower
ksafKSAF 180153Z 24007KT 1/4SM FG VV001 01/00 A3002 RMK AO2 SLP160 T00060000
KSAT Gnd/Twr
ksatKSAT 180151Z 01006KT 10SM OVC008 13/11 A3007 RMK AO2 SLP170 T01280111
KSAW Gnd/Twr/ZMP
WX MAP UNAVAILABLEKSAW 180145Z 01014KT 10SM OVC009 M04/M05 A3015
KSGF Gnd/Twr/App/ZKC
ksgfKSGF 180229Z 05005KT 2SM -SN BR OVC037 01/M01 A3022 RMK AO2 RAE05FZRAB05E12SNB12 P0005 I1000 T00061006
KSLN Ground/Tower
kslnKSLN 180218Z 09007KT 3SM -SN BR BKN007 BKN012 OVC045 M02/M03 A3020 RMK AO2 P0000 T10171033
KSYR Tower/Approach
ksyrKSYR 180154Z 26018KT 8SM -SN BKN011 BKN016 OVC027 01/00 A2991 RMK AO2 SLP128 P0000 T00060000 $
KTKI Del/Gnd/Twr
ktkiKTKI 180153Z 05007KT 9SM -RA OVC006 04/04 A3017 RMK AO2 SLP228 P0001 T00440039
KTVC Gnd/Twr/ZMP
ktvcKTVC 180153Z 31008KT 3SM -SN OVC017 M01/M03 A3011 RMK AO2 SLP204 LAST AUGMENTED OBS OF DAY UNTIL 12Z P0000 T10111028
LBSF Control/FIC
WX MAP UNAVAILABLELBSF 180230Z 36002MPS 1000 R27/1400U FG NSC 00/00 Q1014 TEMPO 0500 FZFG
LDZA Twr/Radar/Ops
WX MAP UNAVAILABLELDZA 180200Z 00000KT 0200 R05/0375N R23/0300N FG NSC 01/00 Q1014 TEMPO VV002
Bordeaux Control/LFBU
WX MAP UNAVAILABLELFBD 180200Z AUTO 27012KT 9000 3800 DZ OVC005 13/12 Q1025
Bordeaux Control/LFBU
WX MAP UNAVAILABLELFBU 180200Z AUTO 27010KT 6000 -DZ OVC004 12/12 Q1022
LSZG Tower
WX MAP UNAVAILABLELSZG 180220Z AUTO VRB04KT 9000 OVC008 05/05 Q1019
LTAC Tower/Approach
WX MAP UNAVAILABLELTAC 180220Z VRB01KT 0500 R03R/0700U R21L/0700N R03L/0900N R21R/0900D FZFG BKN003 M02/M02 Q1019 NOSIG
MMAN Tower
WX MAP UNAVAILABLEMMAN 180143Z 31003KT 1SM BR FEW002 OVC008 17/17 A3005 RMK 8/5//
PAFA Gnd/Twr/App
pafaPAFA 180153Z 00000KT 8SM -SN BKN006 OVC022 M09/M12 A2967 RMK AO2 SNB51 SLP060 T10891122
UHHH Twr/App/Control
WX MAP UNAVAILABLEUHHH 180200Z 24005MPS 9999 -SN OVC100 M18/M21 Q1025 NOSIG
UNNT Gnd/Twr/App/Radar/Misc
WX MAP UNAVAILABLEUNNT 180200Z 22003MPS 7000 -SN OVC016 M08/M10 Q1036 25810155 16490145 NOSIG RMK QFE767/1023
USTR Gnd/Twr/App
WX MAP UNAVAILABLEUSTR 180200Z 21005G08MPS 9999 DRSN BKN008 OVC033CB M08/M09 Q1026 TEMPO 1500 SHSN BLSN BKN004 RMK QFE760/1013 21350063 30456029
UUEE Twr/App/Radar
WX MAP UNAVAILABLEUUEE 180200Z 24006MPS 5000 -SN BKN007 OVC016 00/00 Q1000 75590230 NOSIG
UUWW Gnd/Twr/App/ACC
WX MAP UNAVAILABLEUUWW 180200Z 25007MPS 4000 -SN OVC007 00/00 Q1001 24550240 TEMPO 0700 +SHSN BKN002 BKN010CB
YMML/YMMB/YMEN
WX MAP UNAVAILABLEYMML 180200Z 25013KT CAVOK 22/03 Q1006 FM0400 25020G35KT 9999 -SHRA SCT050 INTER 0400/0500 5000 SHRA SCT030 FM0300 MOD TURB BLW 5000FT